sensor_id;sensor_type;location;lat;lon;timestamp;P1;durP1;ratioP1;P2;durP2;ratioP2
45198;SDS011;30941;46.422;18.772;2024-01-15T00:01:11;56.70;;;30.10;;
45198;SDS011;30941;46.422;18.772;2024-01-15T00:03:36;55.03;;;30.83;;
45198;SDS011;30941;46.422;18.772;2024-01-15T00:06:02;60.05;;;30.38;;
45198;SDS011;30941;46.422;18.772;2024-01-15T00:08:27;55.95;;;29.05;;
45198;SDS011;30941;46.422;18.772;2024-01-15T00:10:53;54.97;;;30.17;;
45198;SDS011;30941;46.422;18.772;2024-01-15T00:13:18;57.67;;;30.63;;
45198;SDS011;30941;46.422;18.772;2024-01-15T00:15:43;61.38;;;33.22;;
45198;SDS011;30941;46.422;18.772;2024-01-15T00:18:09;56.17;;;32.92;;
45198;SDS011;30941;46.422;18.772;2024-01-15T00:20:34;56.00;;;31.67;;
45198;SDS011;30941;46.422;18.772;2024-01-15T00:22:59;59.75;;;32.22;;
45198;SDS011;30941;46.422;18.772;2024-01-15T00:25:25;65.95;;;34.58;;
45198;SDS011;30941;46.422;18.772;2024-01-15T00:27:50;66.82;;;33.10;;
45198;SDS011;30941;46.422;18.772;2024-01-15T00:30:16;59.10;;;32.80;;
45198;SDS011;30941;46.422;18.772;2024-01-15T00:32:41;58.25;;;31.52;;
45198;SDS011;30941;46.422;18.772;2024-01-15T00:35:06;62.35;;;33.22;;
45198;SDS011;30941;46.422;18.772;2024-01-15T00:37:32;55.38;;;32.33;;
45198;SDS011;30941;46.422;18.772;2024-01-15T00:39:57;60.53;;;32.35;;
45198;SDS011;30941;46.422;18.772;2024-01-15T00:42:23;60.38;;;32.05;;
45198;SDS011;30941;46.422;18.772;2024-01-15T00:44:48;61.67;;;33.78;;
45198;SDS011;30941;46.422;18.772;2024-01-15T00:47:13;60.70;;;32.30;;
45198;SDS011;30941;46.422;18.772;2024-01-15T00:49:38;58.55;;;31.42;;
45198;SDS011;30941;46.422;18.772;2024-01-15T00:52:04;61.95;;;32.95;;
45198;SDS011;30941;46.422;18.772;2024-01-15T00:54:30;64.80;;;32.47;;
45198;SDS011;30941;46.422;18.772;2024-01-15T00:56:55;67.20;;;33.70;;
45198;SDS011;30941;46.422;18.772;2024-01-15T00:59:21;59.25;;;32.80;;
45198;SDS011;30941;46.422;18.772;2024-01-15T01:01:46;66.18;;;33.38;;
45198;SDS011;30941;46.422;18.772;2024-01-15T01:04:12;59.20;;;32.95;;
45198;SDS011;30941;46.422;18.772;2024-01-15T01:06:37;60.67;;;32.05;;
45198;SDS011;30941;46.422;18.772;2024-01-15T01:09:03;67.72;;;34.38;;
45198;SDS011;30941;46.422;18.772;2024-01-15T01:11:28;56.60;;;30.80;;
45198;SDS011;30941;46.422;18.772;2024-01-15T01:13:54;63.80;;;32.42;;
45198;SDS011;30941;46.422;18.772;2024-01-15T01:16:21;60.60;;;32.22;;
45198;SDS011;30941;46.422;18.772;2024-01-15T01:18:46;62.67;;;32.33;;
45198;SDS011;30941;46.422;18.772;2024-01-15T01:21:12;59.05;;;32.60;;
45198;SDS011;30941;46.422;18.772;2024-01-15T01:23:37;56.92;;;33.55;;
45198;SDS011;30941;46.422;18.772;2024-01-15T01:26:02;64.13;;;33.97;;
45198;SDS011;30941;46.422;18.772;2024-01-15T01:28:28;64.78;;;33.63;;
45198;SDS011;30941;46.422;18.772;2024-01-15T01:30:53;65.90;;;34.72;;
45198;SDS011;30941;46.422;18.772;2024-01-15T01:33:18;63.40;;;33.65;;
45198;SDS011;30941;46.422;18.772;2024-01-15T01:35:44;60.10;;;32.53;;
45198;SDS011;30941;46.422;18.772;2024-01-15T01:38:10;65.80;;;34.88;;
45198;SDS011;30941;46.422;18.772;2024-01-15T01:40:35;62.83;;;33.58;;
45198;SDS011;30941;46.422;18.772;2024-01-15T01:43:02;64.40;;;33.40;;
45198;SDS011;30941;46.422;18.772;2024-01-15T01:45:28;57.45;;;31.42;;
45198;SDS011;30941;46.422;18.772;2024-01-15T01:47:53;62.28;;;32.83;;
45198;SDS011;30941;46.422;18.772;2024-01-15T01:50:19;60.13;;;33.83;;
45198;SDS011;30941;46.422;18.772;2024-01-15T01:52:44;58.55;;;32.83;;
45198;SDS011;30941;46.422;18.772;2024-01-15T01:55:10;58.42;;;32.95;;
45198;SDS011;30941;46.422;18.772;2024-01-15T01:57:36;59.85;;;32.30;;
45198;SDS011;30941;46.422;18.772;2024-01-15T02:00:01;67.25;;;35.58;;
45198;SDS011;30941;46.422;18.772;2024-01-15T02:02:28;63.63;;;32.28;;
45198;SDS011;30941;46.422;18.772;2024-01-15T02:04:54;56.97;;;32.67;;
45198;SDS011;30941;46.422;18.772;2024-01-15T02:07:20;58.55;;;32.63;;
45198;SDS011;30941;46.422;18.772;2024-01-15T02:09:46;70.40;;;35.80;;
45198;SDS011;30941;46.422;18.772;2024-01-15T02:12:11;61.20;;;33.25;;
45198;SDS011;30941;46.422;18.772;2024-01-15T02:14:36;58.85;;;32.03;;
45198;SDS011;30941;46.422;18.772;2024-01-15T02:17:02;65.03;;;33.22;;
45198;SDS011;30941;46.422;18.772;2024-01-15T02:19:27;59.53;;;32.47;;
45198;SDS011;30941;46.422;18.772;2024-01-15T02:21:53;62.67;;;34.70;;
45198;SDS011;30941;46.422;18.772;2024-01-15T02:24:18;65.57;;;34.03;;
45198;SDS011;30941;46.422;18.772;2024-01-15T02:26:43;62.95;;;34.17;;
45198;SDS011;30941;46.422;18.772;2024-01-15T02:29:09;64.38;;;35.30;;
45198;SDS011;30941;46.422;18.772;2024-01-15T02:31:35;63.30;;;33.58;;
45198;SDS011;30941;46.422;18.772;2024-01-15T02:34:01;62.65;;;34.13;;
45198;SDS011;30941;46.422;18.772;2024-01-15T02:36:26;64.03;;;34.05;;
45198;SDS011;30941;46.422;18.772;2024-01-15T02:38:51;69.97;;;35.33;;
45198;SDS011;30941;46.422;18.772;2024-01-15T02:41:17;61.38;;;33.13;;
45198;SDS011;30941;46.422;18.772;2024-01-15T02:43:42;63.88;;;33.72;;
45198;SDS011;30941;46.422;18.772;2024-01-15T02:46:08;62.25;;;34.30;;
45198;SDS011;30941;46.422;18.772;2024-01-15T02:48:33;62.58;;;33.58;;
45198;SDS011;30941;46.422;18.772;2024-01-15T02:51:00;61.13;;;33.22;;
45198;SDS011;30941;46.422;18.772;2024-01-15T02:53:26;65.28;;;33.67;;
45198;SDS011;30941;46.422;18.772;2024-01-15T02:55:51;61.95;;;32.47;;
45198;SDS011;30941;46.422;18.772;2024-01-15T02:58:16;63.53;;;32.70;;
45198;SDS011;30941;46.422;18.772;2024-01-15T03:00:42;68.32;;;33.45;;
45198;SDS011;30941;46.422;18.772;2024-01-15T03:03:07;54.10;;;30.65;;
45198;SDS011;30941;46.422;18.772;2024-01-15T03:05:33;61.72;;;33.13;;
45198;SDS011;30941;46.422;18.772;2024-01-15T03:07:58;61.22;;;32.20;;
45198;SDS011;30941;46.422;18.772;2024-01-15T03:10:23;62.53;;;32.35;;
45198;SDS011;30941;46.422;18.772;2024-01-15T03:12:49;63.22;;;32.25;;
45198;SDS011;30941;46.422;18.772;2024-01-15T03:15:14;62.70;;;33.22;;
45198;SDS011;30941;46.422;18.772;2024-01-15T03:17:41;64.78;;;33.30;;
45198;SDS011;30941;46.422;18.772;2024-01-15T03:20:07;57.47;;;31.55;;
45198;SDS011;30941;46.422;18.772;2024-01-15T03:22:33;57.15;;;32.08;;
45198;SDS011;30941;46.422;18.772;2024-01-15T03:24:59;61.65;;;32.65;;
45198;SDS011;30941;46.422;18.772;2024-01-15T03:27:24;64.72;;;32.10;;
45198;SDS011;30941;46.422;18.772;2024-01-15T03:29:51;57.13;;;32.17;;
45198;SDS011;30941;46.422;18.772;2024-01-15T03:32:16;59.92;;;33.08;;
45198;SDS011;30941;46.422;18.772;2024-01-15T03:34:42;67.35;;;34.00;;
45198;SDS011;30941;46.422;18.772;2024-01-15T03:37:07;60.00;;;31.63;;
45198;SDS011;30941;46.422;18.772;2024-01-15T03:39:32;62.97;;;34.05;;
45198;SDS011;30941;46.422;18.772;2024-01-15T03:41:58;62.17;;;32.70;;
45198;SDS011;30941;46.422;18.772;2024-01-15T03:44:23;58.88;;;32.60;;
45198;SDS011;30941;46.422;18.772;2024-01-15T03:46:48;60.00;;;32.22;;
45198;SDS011;30941;46.422;18.772;2024-01-15T03:49:14;60.97;;;33.28;;
45198;SDS011;30941;46.422;18.772;2024-01-15T03:51:39;59.72;;;33.10;;
45198;SDS011;30941;46.422;18.772;2024-01-15T03:54:05;57.65;;;31.25;;
45198;SDS011;30941;46.422;18.772;2024-01-15T03:56:30;59.83;;;32.80;;
45198;SDS011;30941;46.422;18.772;2024-01-15T03:58:56;58.65;;;32.22;;
45198;SDS011;30941;46.422;18.772;2024-01-15T04:01:21;56.00;;;33.03;;
45198;SDS011;30941;46.422;18.772;2024-01-15T04:03:46;58.80;;;31.33;;
45198;SDS011;30941;46.422;18.772;2024-01-15T04:06:12;59.53;;;32.63;;
45198;SDS011;30941;46.422;18.772;2024-01-15T04:08:37;58.03;;;32.25;;
45198;SDS011;30941;46.422;18.772;2024-01-15T04:11:02;60.00;;;32.10;;
45198;SDS011;30941;46.422;18.772;2024-01-15T04:13:28;61.08;;;33.22;;
45198;SDS011;30941;46.422;18.772;2024-01-15T04:15:53;54.75;;;31.48;;
45198;SDS011;30941;46.422;18.772;2024-01-15T04:18:19;59.17;;;32.17;;
45198;SDS011;30941;46.422;18.772;2024-01-15T04:20:44;58.65;;;32.80;;
45198;SDS011;30941;46.422;18.772;2024-01-15T04:23:10;60.33;;;32.33;;
45198;SDS011;30941;46.422;18.772;2024-01-15T04:25:35;53.17;;;30.92;;
45198;SDS011;30941;46.422;18.772;2024-01-15T04:28:00;60.50;;;32.55;;
45198;SDS011;30941;46.422;18.772;2024-01-15T04:30:26;57.95;;;31.23;;
45198;SDS011;30941;46.422;18.772;2024-01-15T04:32:51;59.65;;;32.75;;
45198;SDS011;30941;46.422;18.772;2024-01-15T04:35:16;61.55;;;32.53;;
45198;SDS011;30941;46.422;18.772;2024-01-15T04:37:42;55.97;;;32.20;;
45198;SDS011;30941;46.422;18.772;2024-01-15T04:40:08;57.63;;;32.15;;
45198;SDS011;30941;46.422;18.772;2024-01-15T04:42:33;66.65;;;35.88;;
45198;SDS011;30941;46.422;18.772;2024-01-15T04:44:59;58.33;;;33.40;;
45198;SDS011;30941;46.422;18.772;2024-01-15T04:47:24;60.90;;;32.55;;
45198;SDS011;30941;46.422;18.772;2024-01-15T04:49:50;56.65;;;31.92;;
45198;SDS011;30941;46.422;18.772;2024-01-15T04:52:16;61.50;;;33.33;;
45198;SDS011;30941;46.422;18.772;2024-01-15T04:54:41;57.00;;;32.00;;
45198;SDS011;30941;46.422;18.772;2024-01-15T04:57:06;61.25;;;32.88;;
45198;SDS011;30941;46.422;18.772;2024-01-15T04:59:32;59.78;;;32.55;;
45198;SDS011;30941;46.422;18.772;2024-01-15T05:01:57;59.15;;;31.70;;
45198;SDS011;30941;46.422;18.772;2024-01-15T05:04:22;57.72;;;32.75;;
45198;SDS011;30941;46.422;18.772;2024-01-15T05:06:49;56.30;;;31.13;;
45198;SDS011;30941;46.422;18.772;2024-01-15T05:09:15;59.65;;;32.60;;
45198;SDS011;30941;46.422;18.772;2024-01-15T05:11:40;55.17;;;30.85;;
45198;SDS011;30941;46.422;18.772;2024-01-15T05:14:06;60.20;;;31.70;;
45198;SDS011;30941;46.422;18.772;2024-01-15T05:16:31;52.45;;;30.27;;
45198;SDS011;30941;46.422;18.772;2024-01-15T05:18:56;57.05;;;31.33;;
45198;SDS011;30941;46.422;18.772;2024-01-15T05:21:22;55.10;;;30.17;;
45198;SDS011;30941;46.422;18.772;2024-01-15T05:23:47;58.45;;;31.83;;
45198;SDS011;30941;46.422;18.772;2024-01-15T05:26:12;55.00;;;31.83;;
45198;SDS011;30941;46.422;18.772;2024-01-15T05:28:38;53.38;;;30.05;;
45198;SDS011;30941;46.422;18.772;2024-01-15T05:31:03;55.58;;;32.70;;
45198;SDS011;30941;46.422;18.772;2024-01-15T05:33:29;59.97;;;32.17;;
45198;SDS011;30941;46.422;18.772;2024-01-15T05:35:54;52.17;;;29.42;;
45198;SDS011;30941;46.422;18.772;2024-01-15T05:38:20;52.05;;;30.52;;
45198;SDS011;30941;46.422;18.772;2024-01-15T05:40:45;52.85;;;29.77;;
45198;SDS011;30941;46.422;18.772;2024-01-15T05:43:11;50.72;;;28.65;;
45198;SDS011;30941;46.422;18.772;2024-01-15T05:45:37;55.22;;;30.42;;
45198;SDS011;30941;46.422;18.772;2024-01-15T05:48:03;56.80;;;31.20;;
45198;SDS011;30941;46.422;18.772;2024-01-15T05:50:29;56.40;;;31.25;;
45198;SDS011;30941;46.422;18.772;2024-01-15T05:52:54;53.22;;;30.38;;
45198;SDS011;30941;46.422;18.772;2024-01-15T05:55:19;54.03;;;30.30;;
45198;SDS011;30941;46.422;18.772;2024-01-15T05:57:45;56.85;;;30.73;;
45198;SDS011;30941;46.422;18.772;2024-01-15T06:00:10;56.55;;;29.77;;
45198;SDS011;30941;46.422;18.772;2024-01-15T06:02:39;54.08;;;30.58;;
45198;SDS011;30941;46.422;18.772;2024-01-15T06:05:05;55.65;;;30.77;;
45198;SDS011;30941;46.422;18.772;2024-01-15T06:07:31;53.72;;;29.45;;
45198;SDS011;30941;46.422;18.772;2024-01-15T06:09:56;54.50;;;30.50;;
45198;SDS011;30941;46.422;18.772;2024-01-15T06:12:22;64.93;;;34.03;;
45198;SDS011;30941;46.422;18.772;2024-01-15T06:14:47;60.63;;;35.03;;
45198;SDS011;30941;46.422;18.772;2024-01-15T06:17:13;70.82;;;37.05;;
45198;SDS011;30941;46.422;18.772;2024-01-15T06:19:38;67.57;;;38.78;;
45198;SDS011;30941;46.422;18.772;2024-01-15T06:22:04;73.25;;;36.25;;
45198;SDS011;30941;46.422;18.772;2024-01-15T06:24:29;70.40;;;34.33;;
45198;SDS011;30941;46.422;18.772;2024-01-15T06:26:54;65.82;;;33.33;;
45198;SDS011;30941;46.422;18.772;2024-01-15T06:29:20;61.13;;;33.33;;
45198;SDS011;30941;46.422;18.772;2024-01-15T06:31:46;58.63;;;34.20;;
45198;SDS011;30941;46.422;18.772;2024-01-15T06:34:11;68.68;;;35.15;;
45198;SDS011;30941;46.422;18.772;2024-01-15T06:36:37;64.55;;;36.72;;
45198;SDS011;30941;46.422;18.772;2024-01-15T06:39:02;68.68;;;37.75;;
45198;SDS011;30941;46.422;18.772;2024-01-15T06:41:27;74.80;;;41.33;;
45198;SDS011;30941;46.422;18.772;2024-01-15T06:43:53;113.05;;;54.35;;
45198;SDS011;30941;46.422;18.772;2024-01-15T06:46:21;123.72;;;57.95;;
45198;SDS011;30941;46.422;18.772;2024-01-15T06:48:47;105.82;;;51.28;;
45198;SDS011;30941;46.422;18.772;2024-01-15T06:51:12;82.68;;;43.78;;
45198;SDS011;30941;46.422;18.772;2024-01-15T06:53:38;71.75;;;38.17;;
45198;SDS011;30941;46.422;18.772;2024-01-15T06:56:03;74.72;;;40.25;;
45198;SDS011;30941;46.422;18.772;2024-01-15T06:58:30;68.85;;;40.00;;
45198;SDS011;30941;46.422;18.772;2024-01-15T07:00:56;71.47;;;40.90;;
45198;SDS011;30941;46.422;18.772;2024-01-15T07:03:21;68.15;;;40.30;;
45198;SDS011;30941;46.422;18.772;2024-01-15T07:05:47;73.13;;;39.88;;
45198;SDS011;30941;46.422;18.772;2024-01-15T07:08:12;79.82;;;41.92;;
45198;SDS011;30941;46.422;18.772;2024-01-15T07:10:38;78.78;;;41.95;;
45198;SDS011;30941;46.422;18.772;2024-01-15T07:13:03;67.80;;;39.25;;
45198;SDS011;30941;46.422;18.772;2024-01-15T07:15:30;71.53;;;39.42;;
45198;SDS011;30941;46.422;18.772;2024-01-15T07:17:55;75.82;;;40.25;;
45198;SDS011;30941;46.422;18.772;2024-01-15T07:20:21;76.57;;;42.13;;
45198;SDS011;30941;46.422;18.772;2024-01-15T07:22:47;73.90;;;42.42;;
45198;SDS011;30941;46.422;18.772;2024-01-15T07:25:12;82.00;;;42.88;;
45198;SDS011;30941;46.422;18.772;2024-01-15T07:27:37;93.03;;;46.55;;
45198;SDS011;30941;46.422;18.772;2024-01-15T07:30:03;93.30;;;48.85;;
45198;SDS011;30941;46.422;18.772;2024-01-15T07:32:30;100.18;;;50.00;;
45198;SDS011;30941;46.422;18.772;2024-01-15T07:34:56;89.90;;;49.33;;
45198;SDS011;30941;46.422;18.772;2024-01-15T07:37:21;89.28;;;49.83;;
45198;SDS011;30941;46.422;18.772;2024-01-15T07:39:48;105.50;;;55.67;;
45198;SDS011;30941;46.422;18.772;2024-01-15T07:42:13;97.93;;;53.10;;
45198;SDS011;30941;46.422;18.772;2024-01-15T07:44:39;86.97;;;47.92;;
45198;SDS011;30941;46.422;18.772;2024-01-15T07:47:04;97.05;;;50.17;;
45198;SDS011;30941;46.422;18.772;2024-01-15T07:49:30;70.55;;;39.42;;
45198;SDS011;30941;46.422;18.772;2024-01-15T07:51:55;67.70;;;38.88;;
45198;SDS011;30941;46.422;18.772;2024-01-15T07:54:21;73.90;;;37.83;;
45198;SDS011;30941;46.422;18.772;2024-01-15T07:56:56;59.22;;;33.75;;
45198;SDS011;30941;46.422;18.772;2024-01-15T07:59:22;64.80;;;33.30;;
45198;SDS011;30941;46.422;18.772;2024-01-15T08:01:48;58.63;;;32.85;;
45198;SDS011;30941;46.422;18.772;2024-01-15T08:04:13;64.43;;;33.90;;
45198;SDS011;30941;46.422;18.772;2024-01-15T08:06:38;66.85;;;33.97;;
45198;SDS011;30941;46.422;18.772;2024-01-15T08:09:04;64.05;;;34.17;;
45198;SDS011;30941;46.422;18.772;2024-01-15T08:11:30;62.58;;;35.33;;
45198;SDS011;30941;46.422;18.772;2024-01-15T08:13:55;65.57;;;38.70;;
45198;SDS011;30941;46.422;18.772;2024-01-15T08:16:21;71.47;;;38.50;;
45198;SDS011;30941;46.422;18.772;2024-01-15T08:18:46;63.33;;;35.47;;
45198;SDS011;30941;46.422;18.772;2024-01-15T08:21:12;69.18;;;38.10;;
45198;SDS011;30941;46.422;18.772;2024-01-15T08:23:38;65.75;;;37.92;;
45198;SDS011;30941;46.422;18.772;2024-01-15T08:26:04;60.47;;;33.67;;
45198;SDS011;30941;46.422;18.772;2024-01-15T08:28:29;55.42;;;32.17;;
45198;SDS011;30941;46.422;18.772;2024-01-15T08:30:55;56.63;;;30.55;;
45198;SDS011;30941;46.422;18.772;2024-01-15T08:33:20;47.60;;;29.05;;
45198;SDS011;30941;46.422;18.772;2024-01-15T08:35:46;57.97;;;29.80;;
45198;SDS011;30941;46.422;18.772;2024-01-15T08:38:11;54.88;;;30.50;;
45198;SDS011;30941;46.422;18.772;2024-01-15T08:40:36;64.65;;;31.90;;
45198;SDS011;30941;46.422;18.772;2024-01-15T08:43:02;66.50;;;34.75;;
45198;SDS011;30941;46.422;18.772;2024-01-15T08:45:27;67.18;;;36.58;;
45198;SDS011;30941;46.422;18.772;2024-01-15T08:47:52;62.28;;;34.15;;
45198;SDS011;30941;46.422;18.772;2024-01-15T08:50:18;52.03;;;29.15;;
45198;SDS011;30941;46.422;18.772;2024-01-15T08:52:43;57.85;;;32.25;;
45198;SDS011;30941;46.422;18.772;2024-01-15T08:55:08;50.65;;;28.13;;
45198;SDS011;30941;46.422;18.772;2024-01-15T08:57:34;55.60;;;32.20;;
45198;SDS011;30941;46.422;18.772;2024-01-15T08:59:59;59.75;;;30.20;;
45198;SDS011;30941;46.422;18.772;2024-01-15T09:02:25;59.83;;;32.30;;
45198;SDS011;30941;46.422;18.772;2024-01-15T09:04:50;53.38;;;30.83;;
45198;SDS011;30941;46.422;18.772;2024-01-15T09:07:16;61.15;;;33.50;;
45198;SDS011;30941;46.422;18.772;2024-01-15T09:09:42;55.45;;;32.55;;
45198;SDS011;30941;46.422;18.772;2024-01-15T09:12:07;53.63;;;31.77;;
45198;SDS011;30941;46.422;18.772;2024-01-15T09:14:33;49.47;;;27.80;;
45198;SDS011;30941;46.422;18.772;2024-01-15T09:16:59;49.03;;;29.80;;
45198;SDS011;30941;46.422;18.772;2024-01-15T09:19:24;52.83;;;29.85;;
45198;SDS011;30941;46.422;18.772;2024-01-15T09:21:50;49.53;;;29.08;;
45198;SDS011;30941;46.422;18.772;2024-01-15T09:24:15;52.50;;;29.77;;
45198;SDS011;30941;46.422;18.772;2024-01-15T09:26:41;53.28;;;29.92;;
45198;SDS011;30941;46.422;18.772;2024-01-15T09:29:06;56.08;;;30.98;;
45198;SDS011;30941;46.422;18.772;2024-01-15T09:31:31;54.20;;;28.65;;
45198;SDS011;30941;46.422;18.772;2024-01-15T09:33:57;49.95;;;27.35;;
45198;SDS011;30941;46.422;18.772;2024-01-15T09:36:24;57.60;;;30.35;;
45198;SDS011;30941;46.422;18.772;2024-01-15T09:38:50;50.40;;;26.42;;
45198;SDS011;30941;46.422;18.772;2024-01-15T09:41:16;53.70;;;27.20;;
45198;SDS011;30941;46.422;18.772;2024-01-15T09:43:41;55.45;;;29.13;;
45198;SDS011;30941;46.422;18.772;2024-01-15T09:46:07;58.15;;;31.67;;
45198;SDS011;30941;46.422;18.772;2024-01-15T09:48:33;51.63;;;29.27;;
45198;SDS011;30941;46.422;18.772;2024-01-15T09:50:59;59.83;;;32.22;;
45198;SDS011;30941;46.422;18.772;2024-01-15T09:53:26;64.32;;;34.72;;
45198;SDS011;30941;46.422;18.772;2024-01-15T09:55:52;55.78;;;31.90;;
45198;SDS011;30941;46.422;18.772;2024-01-15T09:58:18;57.08;;;31.95;;
45198;SDS011;30941;46.422;18.772;2024-01-15T10:00:44;53.63;;;31.23;;
45198;SDS011;30941;46.422;18.772;2024-01-15T10:03:09;58.47;;;31.10;;
45198;SDS011;30941;46.422;18.772;2024-01-15T10:05:36;64.80;;;34.15;;
45198;SDS011;30941;46.422;18.772;2024-01-15T10:08:02;55.33;;;32.55;;
45198;SDS011;30941;46.422;18.772;2024-01-15T10:10:28;63.10;;;33.92;;
45198;SDS011;30941;46.422;18.772;2024-01-15T10:12:53;66.18;;;37.72;;
45198;SDS011;30941;46.422;18.772;2024-01-15T10:15:22;62.83;;;35.00;;
45198;SDS011;30941;46.422;18.772;2024-01-15T10:17:48;55.50;;;31.40;;
45198;SDS011;30941;46.422;18.772;2024-01-15T10:20:13;50.10;;;28.52;;
45198;SDS011;30941;46.422;18.772;2024-01-15T10:22:40;48.97;;;28.23;;
45198;SDS011;30941;46.422;18.772;2024-01-15T10:25:09;48.85;;;27.65;;
45198;SDS011;30941;46.422;18.772;2024-01-15T10:27:35;55.30;;;30.88;;
45198;SDS011;30941;46.422;18.772;2024-01-15T10:30:00;49.65;;;29.23;;
45198;SDS011;30941;46.422;18.772;2024-01-15T10:32:27;48.85;;;29.05;;
45198;SDS011;30941;46.422;18.772;2024-01-15T10:34:54;46.45;;;27.08;;
45198;SDS011;30941;46.422;18.772;2024-01-15T10:37:19;56.72;;;30.35;;
45198;SDS011;30941;46.422;18.772;2024-01-15T10:39:46;56.95;;;32.20;;
45198;SDS011;30941;46.422;18.772;2024-01-15T10:42:11;52.33;;;30.25;;
45198;SDS011;30941;46.422;18.772;2024-01-15T10:44:36;51.80;;;28.65;;
45198;SDS011;30941;46.422;18.772;2024-01-15T10:47:02;45.72;;;28.25;;
45198;SDS011;30941;46.422;18.772;2024-01-15T10:49:28;46.35;;;26.98;;
45198;SDS011;30941;46.422;18.772;2024-01-15T10:51:54;43.88;;;26.45;;
45198;SDS011;30941;46.422;18.772;2024-01-15T10:54:19;46.65;;;26.45;;
45198;SDS011;30941;46.422;18.772;2024-01-15T10:56:46;42.88;;;24.55;;
45198;SDS011;30941;46.422;18.772;2024-01-15T10:59:12;42.45;;;25.90;;
45198;SDS011;30941;46.422;18.772;2024-01-15T11:01:38;49.92;;;26.02;;
45198;SDS011;30941;46.422;18.772;2024-01-15T11:04:04;42.67;;;23.70;;
45198;SDS011;30941;46.422;18.772;2024-01-15T11:06:41;42.40;;;24.92;;
45198;SDS011;30941;46.422;18.772;2024-01-15T11:09:07;42.47;;;23.83;;
45198;SDS011;30941;46.422;18.772;2024-01-15T11:11:35;41.30;;;24.15;;
45198;SDS011;30941;46.422;18.772;2024-01-15T11:14:01;39.83;;;23.40;;
45198;SDS011;30941;46.422;18.772;2024-01-15T11:16:28;43.58;;;25.15;;
45198;SDS011;30941;46.422;18.772;2024-01-15T11:19:18;44.08;;;23.98;;
45198;SDS011;30941;46.422;18.772;2024-01-15T11:21:44;45.97;;;26.27;;
45198;SDS011;30941;46.422;18.772;2024-01-15T11:24:09;41.15;;;23.83;;
45198;SDS011;30941;46.422;18.772;2024-01-15T11:26:38;45.70;;;24.90;;
45198;SDS011;30941;46.422;18.772;2024-01-15T11:34:20;44.75;;;24.15;;
45198;SDS011;30941;46.422;18.772;2024-01-15T11:41:55;46.30;;;26.60;;
45198;SDS011;30941;46.422;18.772;2024-01-15T11:44:24;46.42;;;27.40;;
45198;SDS011;30941;46.422;18.772;2024-01-15T11:47:04;49.15;;;25.95;;
45198;SDS011;30941;46.422;18.772;2024-01-15T11:49:40;46.70;;;27.30;;
45198;SDS011;30941;46.422;18.772;2024-01-15T11:52:31;51.13;;;26.42;;
45198;SDS011;30941;46.422;18.772;2024-01-15T11:55:01;44.10;;;27.38;;
45198;SDS011;30941;46.422;18.772;2024-01-15T11:57:50;47.58;;;26.38;;
45198;SDS011;30941;46.422;18.772;2024-01-15T12:00:16;46.13;;;26.48;;
45198;SDS011;30941;46.422;18.772;2024-01-15T12:02:43;44.47;;;26.50;;
45198;SDS011;30941;46.422;18.772;2024-01-15T12:05:13;47.40;;;27.23;;
45198;SDS011;30941;46.422;18.772;2024-01-15T12:07:40;52.03;;;28.45;;
45198;SDS011;30941;46.422;18.772;2024-01-15T12:10:12;46.45;;;27.52;;
45198;SDS011;30941;46.422;18.772;2024-01-15T12:15:24;40.55;;;24.20;;
45198;SDS011;30941;46.422;18.772;2024-01-15T12:17:49;38.42;;;23.85;;
45198;SDS011;30941;46.422;18.772;2024-01-15T12:20:15;38.33;;;23.48;;
45198;SDS011;30941;46.422;18.772;2024-01-15T12:22:44;40.40;;;22.70;;
45198;SDS011;30941;46.422;18.772;2024-01-15T12:25:09;38.20;;;22.60;;
45198;SDS011;30941;46.422;18.772;2024-01-15T12:27:35;36.13;;;24.35;;
45198;SDS011;30941;46.422;18.772;2024-01-15T12:30:00;37.58;;;21.95;;
45198;SDS011;30941;46.422;18.772;2024-01-15T12:32:26;39.88;;;22.58;;
45198;SDS011;30941;46.422;18.772;2024-01-15T12:34:51;36.45;;;21.52;;
45198;SDS011;30941;46.422;18.772;2024-01-15T12:37:20;40.65;;;21.73;;
45198;SDS011;30941;46.422;18.772;2024-01-15T12:39:46;39.22;;;22.05;;
45198;SDS011;30941;46.422;18.772;2024-01-15T12:42:16;37.85;;;21.85;;
45198;SDS011;30941;46.422;18.772;2024-01-15T12:44:42;38.05;;;21.52;;
45198;SDS011;30941;46.422;18.772;2024-01-15T12:47:07;33.88;;;21.35;;
45198;SDS011;30941;46.422;18.772;2024-01-15T12:49:33;40.83;;;23.23;;
45198;SDS011;30941;46.422;18.772;2024-01-15T12:51:58;40.88;;;22.17;;
45198;SDS011;30941;46.422;18.772;2024-01-15T12:54:24;39.60;;;22.17;;
45198;SDS011;30941;46.422;18.772;2024-01-15T12:56:50;36.42;;;21.92;;
45198;SDS011;30941;46.422;18.772;2024-01-15T12:59:16;37.17;;;22.67;;
45198;SDS011;30941;46.422;18.772;2024-01-15T13:01:42;41.85;;;23.65;;
45198;SDS011;30941;46.422;18.772;2024-01-15T13:04:07;38.45;;;22.63;;
45198;SDS011;30941;46.422;18.772;2024-01-15T13:06:35;37.58;;;22.17;;
45198;SDS011;30941;46.422;18.772;2024-01-15T13:09:02;40.72;;;22.65;;
45198;SDS011;30941;46.422;18.772;2024-01-15T13:11:30;40.72;;;23.90;;
45198;SDS011;30941;46.422;18.772;2024-01-15T13:13:55;37.78;;;23.42;;
45198;SDS011;30941;46.422;18.772;2024-01-15T13:16:22;42.08;;;24.27;;
45198;SDS011;30941;46.422;18.772;2024-01-15T13:18:47;38.72;;;22.63;;
45198;SDS011;30941;46.422;18.772;2024-01-15T13:21:14;37.95;;;23.02;;
45198;SDS011;30941;46.422;18.772;2024-01-15T13:23:40;37.45;;;22.83;;
45198;SDS011;30941;46.422;18.772;2024-01-15T13:26:05;43.45;;;22.55;;
45198;SDS011;30941;46.422;18.772;2024-01-15T13:28:32;37.97;;;22.10;;
45198;SDS011;30941;46.422;18.772;2024-01-15T13:30:57;43.58;;;23.55;;
45198;SDS011;30941;46.422;18.772;2024-01-15T13:33:22;38.55;;;23.55;;
45198;SDS011;30941;46.422;18.772;2024-01-15T13:35:48;38.92;;;23.20;;
45198;SDS011;30941;46.422;18.772;2024-01-15T13:38:16;39.38;;;23.33;;
45198;SDS011;30941;46.422;18.772;2024-01-15T13:40:41;36.97;;;22.73;;
45198;SDS011;30941;46.422;18.772;2024-01-15T13:43:07;40.15;;;23.17;;
45198;SDS011;30941;46.422;18.772;2024-01-15T13:45:33;41.08;;;22.75;;
45198;SDS011;30941;46.422;18.772;2024-01-15T13:48:00;36.22;;;22.30;;
45198;SDS011;30941;46.422;18.772;2024-01-15T13:50:26;39.05;;;22.98;;
45198;SDS011;30941;46.422;18.772;2024-01-15T13:52:52;39.13;;;22.60;;
45198;SDS011;30941;46.422;18.772;2024-01-15T13:55:17;37.72;;;22.80;;
45198;SDS011;30941;46.422;18.772;2024-01-15T13:57:43;38.20;;;23.20;;
45198;SDS011;30941;46.422;18.772;2024-01-15T14:00:08;39.58;;;24.60;;
45198;SDS011;30941;46.422;18.772;2024-01-15T14:02:36;43.28;;;24.52;;
45198;SDS011;30941;46.422;18.772;2024-01-15T14:05:02;40.67;;;23.20;;
45198;SDS011;30941;46.422;18.772;2024-01-15T14:07:27;47.38;;;24.60;;
45198;SDS011;30941;46.422;18.772;2024-01-15T14:09:53;37.38;;;22.45;;
45198;SDS011;30941;46.422;18.772;2024-01-15T14:12:18;39.60;;;22.05;;
45198;SDS011;30941;46.422;18.772;2024-01-15T14:14:43;38.00;;;22.10;;